sensor_id;sensor_type;location;lat;lon;timestamp;P1;durP1;ratioP1;P2;durP2;ratioP2
43098;SDS011;28715;51.988;6.020;2022-10-26T00:00:28;32.23;;;17.23;;
43098;SDS011;28715;51.988;6.020;2022-10-26T00:02:54;33.60;;;17.90;;
43098;SDS011;28715;51.988;6.020;2022-10-26T00:05:21;30.42;;;18.85;;
43098;SDS011;28715;51.988;6.020;2022-10-26T00:07:47;35.67;;;19.27;;
43098;SDS011;28715;51.988;6.020;2022-10-26T00:10:13;35.50;;;18.98;;
43098;SDS011;28715;51.988;6.020;2022-10-26T00:12:39;35.63;;;19.20;;
43098;SDS011;28715;51.988;6.020;2022-10-26T00:15:05;34.87;;;20.37;;
43098;SDS011;28715;51.988;6.020;2022-10-26T00:17:32;34.75;;;18.85;;
43098;SDS011;28715;51.988;6.020;2022-10-26T00:19:58;29.30;;;17.42;;
43098;SDS011;28715;51.988;6.020;2022-10-26T00:22:24;27.77;;;16.05;;
43098;SDS011;28715;51.988;6.020;2022-10-26T00:24:50;25.58;;;16.45;;
43098;SDS011;28715;51.988;6.020;2022-10-26T00:27:16;28.40;;;15.13;;
43098;SDS011;28715;51.988;6.020;2022-10-26T00:29:42;29.63;;;15.93;;
43098;SDS011;28715;51.988;6.020;2022-10-26T00:32:07;35.33;;;18.30;;
43098;SDS011;28715;51.988;6.020;2022-10-26T00:34:33;32.37;;;18.23;;
43098;SDS011;28715;51.988;6.020;2022-10-26T00:36:58;34.97;;;19.70;;
43098;SDS011;28715;51.988;6.020;2022-10-26T00:39:24;40.27;;;20.87;;
43098;SDS011;28715;51.988;6.020;2022-10-26T00:41:49;30.23;;;18.07;;
43098;SDS011;28715;51.988;6.020;2022-10-26T00:47:07;34.45;;;20.00;;
43098;SDS011;28715;51.988;6.020;2022-10-26T00:49:37;37.05;;;21.10;;
43098;SDS011;28715;51.988;6.020;2022-10-26T00:52:02;43.58;;;24.65;;
43098;SDS011;28715;51.988;6.020;2022-10-26T00:54:30;44.75;;;22.98;;
43098;SDS011;28715;51.988;6.020;2022-10-26T00:56:56;51.00;;;26.83;;
43098;SDS011;28715;51.988;6.020;2022-10-26T00:59:22;51.30;;;27.30;;
43098;SDS011;28715;51.988;6.020;2022-10-26T01:01:48;41.25;;;24.20;;
43098;SDS011;28715;51.988;6.020;2022-10-26T01:04:14;40.90;;;22.70;;
43098;SDS011;28715;51.988;6.020;2022-10-26T01:06:41;39.07;;;21.60;;
43098;SDS011;28715;51.988;6.020;2022-10-26T01:09:08;39.17;;;23.35;;
43098;SDS011;28715;51.988;6.020;2022-10-26T01:11:34;44.63;;;24.25;;
43098;SDS011;28715;51.988;6.020;2022-10-26T01:14:00;42.10;;;24.43;;
43098;SDS011;28715;51.988;6.020;2022-10-26T01:21:58;38.40;;;23.30;;
43098;SDS011;28715;51.988;6.020;2022-10-26T01:27:10;43.60;;;25.38;;
43098;SDS011;28715;51.988;6.020;2022-10-26T01:33:21;39.78;;;24.13;;
43098;SDS011;28715;51.988;6.020;2022-10-26T01:35:30;40.55;;;22.70;;
43098;SDS011;28715;51.988;6.020;2022-10-26T01:38:03;39.53;;;23.63;;
43098;SDS011;28715;51.988;6.020;2022-10-26T01:40:34;35.15;;;20.98;;
43098;SDS011;28715;51.988;6.020;2022-10-26T01:43:04;38.97;;;22.20;;
43098;SDS011;28715;51.988;6.020;2022-10-26T01:45:33;42.92;;;23.08;;
43098;SDS011;28715;51.988;6.020;2022-10-26T01:48:04;37.00;;;22.08;;
43098;SDS011;28715;51.988;6.020;2022-10-26T01:50:32;44.75;;;25.90;;
43098;SDS011;28715;51.988;6.020;2022-10-26T01:52:59;36.08;;;22.02;;
43098;SDS011;28715;51.988;6.020;2022-10-26T01:59:01;41.17;;;21.73;;
43098;SDS011;28715;51.988;6.020;2022-10-26T02:09:33;38.20;;;21.05;;
43098;SDS011;28715;51.988;6.020;2022-10-26T02:12:14;42.08;;;21.73;;
43098;SDS011;28715;51.988;6.020;2022-10-26T02:15:00;35.35;;;20.30;;
43098;SDS011;28715;51.988;6.020;2022-10-26T02:17:50;35.97;;;19.15;;
43098;SDS011;28715;51.988;6.020;2022-10-26T02:20:26;34.90;;;19.90;;
43098;SDS011;28715;51.988;6.020;2022-10-26T02:22:55;32.40;;;19.05;;
43098;SDS011;28715;51.988;6.020;2022-10-26T02:25:25;34.65;;;18.63;;
43098;SDS011;28715;51.988;6.020;2022-10-26T02:30:21;32.50;;;18.02;;
43098;SDS011;28715;51.988;6.020;2022-10-26T02:32:49;30.80;;;17.87;;
43098;SDS011;28715;51.988;6.020;2022-10-26T02:35:18;28.42;;;16.83;;
43098;SDS011;28715;51.988;6.020;2022-10-26T02:37:47;34.40;;;17.10;;
43098;SDS011;28715;51.988;6.020;2022-10-26T02:40:16;27.92;;;16.85;;
43098;SDS011;28715;51.988;6.020;2022-10-26T02:42:45;30.17;;;15.40;;
43098;SDS011;28715;51.988;6.020;2022-10-26T02:45:13;30.30;;;17.45;;
43098;SDS011;28715;51.988;6.020;2022-10-26T02:47:46;30.27;;;17.83;;
43098;SDS011;28715;51.988;6.020;2022-10-26T02:50:12;27.50;;;18.00;;
43098;SDS011;28715;51.988;6.020;2022-10-26T02:52:48;29.98;;;17.52;;
43098;SDS011;28715;51.988;6.020;2022-10-26T02:55:34;27.02;;;17.20;;
43098;SDS011;28715;51.988;6.020;2022-10-26T02:58:05;32.95;;;18.27;;
43098;SDS011;28715;51.988;6.020;2022-10-26T03:00:37;32.78;;;17.67;;
43098;SDS011;28715;51.988;6.020;2022-10-26T03:03:03;36.67;;;18.83;;
43098;SDS011;28715;51.988;6.020;2022-10-26T03:05:29;37.90;;;21.37;;
43098;SDS011;28715;51.988;6.020;2022-10-26T03:07:56;29.45;;;17.75;;
43098;SDS011;28715;51.988;6.020;2022-10-26T03:10:22;31.25;;;18.42;;
43098;SDS011;28715;51.988;6.020;2022-10-26T03:12:49;32.65;;;18.92;;
43098;SDS011;28715;51.988;6.020;2022-10-26T03:15:14;28.43;;;17.10;;
43098;SDS011;28715;51.988;6.020;2022-10-26T03:17:40;32.00;;;17.60;;
43098;SDS011;28715;51.988;6.020;2022-10-26T03:20:06;35.03;;;18.80;;
43098;SDS011;28715;51.988;6.020;2022-10-26T03:22:32;33.83;;;19.83;;
43098;SDS011;28715;51.988;6.020;2022-10-26T03:24:58;28.90;;;17.50;;
43098;SDS011;28715;51.988;6.020;2022-10-26T03:27:24;31.33;;;17.93;;
43098;SDS011;28715;51.988;6.020;2022-10-26T03:29:50;31.98;;;18.20;;
43098;SDS011;28715;51.988;6.020;2022-10-26T03:32:16;34.17;;;16.83;;
43098;SDS011;28715;51.988;6.020;2022-10-26T03:34:42;30.03;;;17.10;;
43098;SDS011;28715;51.988;6.020;2022-10-26T03:37:07;33.30;;;18.10;;
43098;SDS011;28715;51.988;6.020;2022-10-26T03:39:33;28.73;;;16.10;;
43098;SDS011;28715;51.988;6.020;2022-10-26T03:41:58;27.67;;;16.30;;
43098;SDS011;28715;51.988;6.020;2022-10-26T03:44:24;28.23;;;16.77;;
43098;SDS011;28715;51.988;6.020;2022-10-26T03:46:49;28.90;;;16.17;;
43098;SDS011;28715;51.988;6.020;2022-10-26T03:49:15;29.70;;;16.20;;
43098;SDS011;28715;51.988;6.020;2022-10-26T03:51:40;30.60;;;16.87;;
43098;SDS011;28715;51.988;6.020;2022-10-26T03:54:06;24.07;;;15.27;;
43098;SDS011;28715;51.988;6.020;2022-10-26T03:56:32;24.45;;;14.80;;
43098;SDS011;28715;51.988;6.020;2022-10-26T03:58:57;26.10;;;15.30;;
43098;SDS011;28715;51.988;6.020;2022-10-26T04:01:23;26.47;;;16.67;;
43098;SDS011;28715;51.988;6.020;2022-10-26T04:03:48;26.73;;;16.00;;
43098;SDS011;28715;51.988;6.020;2022-10-26T04:06:14;31.10;;;17.03;;
43098;SDS011;28715;51.988;6.020;2022-10-26T04:08:39;33.20;;;17.40;;
43098;SDS011;28715;51.988;6.020;2022-10-26T04:11:05;28.87;;;17.37;;
43098;SDS011;28715;51.988;6.020;2022-10-26T04:13:31;26.67;;;16.87;;
43098;SDS011;28715;51.988;6.020;2022-10-26T04:15:57;27.63;;;17.87;;
43098;SDS011;28715;51.988;6.020;2022-10-26T04:18:22;29.00;;;17.30;;
43098;SDS011;28715;51.988;6.020;2022-10-26T04:20:48;32.67;;;18.13;;
43098;SDS011;28715;51.988;6.020;2022-10-26T04:23:14;32.00;;;16.80;;
43098;SDS011;28715;51.988;6.020;2022-10-26T04:25:42;32.00;;;17.35;;
43098;SDS011;28715;51.988;6.020;2022-10-26T04:28:08;28.55;;;17.17;;
43098;SDS011;28715;51.988;6.020;2022-10-26T04:30:35;32.28;;;17.90;;
43098;SDS011;28715;51.988;6.020;2022-10-26T04:33:00;28.52;;;17.85;;
43098;SDS011;28715;51.988;6.020;2022-10-26T04:35:26;31.97;;;17.67;;
43098;SDS011;28715;51.988;6.020;2022-10-26T04:38:02;30.23;;;18.13;;
43098;SDS011;28715;51.988;6.020;2022-10-26T04:40:30;35.00;;;19.70;;
43098;SDS011;28715;51.988;6.020;2022-10-26T04:42:57;33.08;;;18.70;;
43098;SDS011;28715;51.988;6.020;2022-10-26T04:45:23;34.55;;;20.05;;
43098;SDS011;28715;51.988;6.020;2022-10-26T04:48:05;33.50;;;18.92;;
43098;SDS011;28715;51.988;6.020;2022-10-26T04:50:33;33.95;;;20.25;;
43098;SDS011;28715;51.988;6.020;2022-10-26T04:53:00;39.50;;;22.48;;
43098;SDS011;28715;51.988;6.020;2022-10-26T04:55:25;33.57;;;18.03;;
43098;SDS011;28715;51.988;6.020;2022-10-26T04:57:51;31.00;;;19.13;;
43098;SDS011;28715;51.988;6.020;2022-10-26T05:00:16;34.33;;;19.53;;
43098;SDS011;28715;51.988;6.020;2022-10-26T05:02:43;34.63;;;20.23;;
43098;SDS011;28715;51.988;6.020;2022-10-26T05:05:09;36.33;;;20.45;;
43098;SDS011;28715;51.988;6.020;2022-10-26T05:07:35;36.53;;;19.60;;
43098;SDS011;28715;51.988;6.020;2022-10-26T05:10:00;33.57;;;19.10;;
43098;SDS011;28715;51.988;6.020;2022-10-26T05:12:26;31.53;;;17.93;;
43098;SDS011;28715;51.988;6.020;2022-10-26T05:14:51;24.57;;;15.17;;
43098;SDS011;28715;51.988;6.020;2022-10-26T05:17:17;26.63;;;17.17;;
43098;SDS011;28715;51.988;6.020;2022-10-26T05:19:42;30.40;;;19.00;;
43098;SDS011;28715;51.988;6.020;2022-10-26T05:22:08;33.37;;;18.20;;
43098;SDS011;28715;51.988;6.020;2022-10-26T05:24:34;38.17;;;20.73;;
43098;SDS011;28715;51.988;6.020;2022-10-26T05:27:00;32.90;;;19.10;;
43098;SDS011;28715;51.988;6.020;2022-10-26T05:29:25;31.00;;;18.07;;
43098;SDS011;28715;51.988;6.020;2022-10-26T05:31:51;31.70;;;17.90;;
43098;SDS011;28715;51.988;6.020;2022-10-26T05:34:16;31.73;;;19.10;;
43098;SDS011;28715;51.988;6.020;2022-10-26T05:36:42;34.97;;;18.83;;
43098;SDS011;28715;51.988;6.020;2022-10-26T05:39:07;32.60;;;16.73;;
43098;SDS011;28715;51.988;6.020;2022-10-26T05:41:33;24.57;;;17.37;;
43098;SDS011;28715;51.988;6.020;2022-10-26T05:43:58;31.60;;;17.13;;
43098;SDS011;28715;51.988;6.020;2022-10-26T05:46:24;24.33;;;14.87;;
43098;SDS011;28715;51.988;6.020;2022-10-26T05:48:49;30.40;;;16.73;;
43098;SDS011;28715;51.988;6.020;2022-10-26T05:51:15;24.83;;;16.03;;
43098;SDS011;28715;51.988;6.020;2022-10-26T05:53:40;30.30;;;16.83;;
43098;SDS011;28715;51.988;6.020;2022-10-26T05:56:19;28.50;;;16.83;;
43098;SDS011;28715;51.988;6.020;2022-10-26T05:58:57;29.10;;;16.30;;
43098;SDS011;28715;51.988;6.020;2022-10-26T06:01:39;26.60;;;16.10;;
43098;SDS011;28715;51.988;6.020;2022-10-26T06:04:42;28.77;;;17.17;;
43098;SDS011;28715;51.988;6.020;2022-10-26T06:07:21;32.28;;;18.20;;
43098;SDS011;28715;51.988;6.020;2022-10-26T06:09:47;33.58;;;18.77;;
43098;SDS011;28715;51.988;6.020;2022-10-26T06:12:13;29.73;;;17.02;;
43098;SDS011;28715;51.988;6.020;2022-10-26T06:14:40;31.95;;;19.13;;
43098;SDS011;28715;51.988;6.020;2022-10-26T06:31:24;29.27;;;17.00;;
43098;SDS011;28715;51.988;6.020;2022-10-26T06:33:50;28.83;;;16.13;;
43098;SDS011;28715;51.988;6.020;2022-10-26T06:36:23;27.30;;;17.15;;
43098;SDS011;28715;51.988;6.020;2022-10-26T06:38:55;30.33;;;16.90;;
43098;SDS011;28715;51.988;6.020;2022-10-26T06:41:32;28.88;;;15.48;;
43098;SDS011;28715;51.988;6.020;2022-10-26T06:43:59;24.83;;;15.82;;
43098;SDS011;28715;51.988;6.020;2022-10-26T06:52:28;28.98;;;16.13;;
43098;SDS011;28715;51.988;6.020;2022-10-26T06:54:59;31.02;;;18.05;;
43098;SDS011;28715;51.988;6.020;2022-10-26T06:57:30;21.30;;;14.60;;
43098;SDS011;28715;51.988;6.020;2022-10-26T07:00:13;28.15;;;15.73;;
43098;SDS011;28715;51.988;6.020;2022-10-26T07:02:39;24.77;;;14.52;;
43098;SDS011;28715;51.988;6.020;2022-10-26T07:05:08;28.85;;;15.70;;
43098;SDS011;28715;51.988;6.020;2022-10-26T07:07:36;29.80;;;15.90;;
43098;SDS011;28715;51.988;6.020;2022-10-26T07:10:06;28.00;;;15.45;;
43098;SDS011;28715;51.988;6.020;2022-10-26T07:12:31;34.80;;;15.67;;
43098;SDS011;28715;51.988;6.020;2022-10-26T07:14:57;25.13;;;14.93;;
43098;SDS011;28715;51.988;6.020;2022-10-26T07:17:24;23.52;;;14.52;;
43098;SDS011;28715;51.988;6.020;2022-10-26T07:19:52;22.65;;;13.55;;
43098;SDS011;28715;51.988;6.020;2022-10-26T07:22:18;22.40;;;13.67;;
43098;SDS011;28715;51.988;6.020;2022-10-26T07:24:44;23.73;;;13.87;;
43098;SDS011;28715;51.988;6.020;2022-10-26T07:27:09;20.97;;;12.13;;
43098;SDS011;28715;51.988;6.020;2022-10-26T07:29:35;20.80;;;12.47;;
43098;SDS011;28715;51.988;6.020;2022-10-26T07:32:01;20.67;;;12.03;;
43098;SDS011;28715;51.988;6.020;2022-10-26T07:34:26;20.10;;;12.20;;
43098;SDS011;28715;51.988;6.020;2022-10-26T07:36:52;19.53;;;11.67;;
43098;SDS011;28715;51.988;6.020;2022-10-26T07:39:17;21.40;;;11.40;;
43098;SDS011;28715;51.988;6.020;2022-10-26T07:41:43;19.43;;;11.17;;
43098;SDS011;28715;51.988;6.020;2022-10-26T07:44:09;17.77;;;10.32;;
43098;SDS011;28715;51.988;6.020;2022-10-26T07:46:35;18.87;;;11.17;;
43098;SDS011;28715;51.988;6.020;2022-10-26T07:49:00;19.60;;;11.10;;
43098;SDS011;28715;51.988;6.020;2022-10-26T07:51:26;17.20;;;10.67;;
43098;SDS011;28715;51.988;6.020;2022-10-26T07:53:51;18.03;;;9.90;;
43098;SDS011;28715;51.988;6.020;2022-10-26T07:56:17;22.83;;;11.23;;
43098;SDS011;28715;51.988;6.020;2022-10-26T07:58:43;19.93;;;10.87;;
43098;SDS011;28715;51.988;6.020;2022-10-26T08:01:09;20.53;;;9.30;;
43098;SDS011;28715;51.988;6.020;2022-10-26T08:03:37;13.52;;;8.45;;
43098;SDS011;28715;51.988;6.020;2022-10-26T08:06:03;15.07;;;6.67;;
43098;SDS011;28715;51.988;6.020;2022-10-26T08:08:32;8.90;;;5.50;;
43098;SDS011;28715;51.988;6.020;2022-10-26T08:10:58;12.82;;;5.60;;
43098;SDS011;28715;51.988;6.020;2022-10-26T08:13:24;8.00;;;4.03;;
43098;SDS011;28715;51.988;6.020;2022-10-26T08:15:55;11.33;;;4.40;;
43098;SDS011;28715;51.988;6.020;2022-10-26T08:18:21;9.00;;;3.87;;
43098;SDS011;28715;51.988;6.020;2022-10-26T08:20:47;9.60;;;4.10;;
43098;SDS011;28715;51.988;6.020;2022-10-26T08:23:12;11.53;;;4.47;;
43098;SDS011;28715;51.988;6.020;2022-10-26T08:25:38;10.00;;;3.67;;
43098;SDS011;28715;51.988;6.020;2022-10-26T08:28:03;9.77;;;3.43;;
43098;SDS011;28715;51.988;6.020;2022-10-26T08:30:29;9.60;;;3.13;;
43098;SDS011;28715;51.988;6.020;2022-10-26T08:32:59;8.43;;;3.23;;
43098;SDS011;28715;51.988;6.020;2022-10-26T08:35:26;8.53;;;3.10;;
43098;SDS011;28715;51.988;6.020;2022-10-26T08:37:52;9.93;;;3.30;;
43098;SDS011;28715;51.988;6.020;2022-10-26T08:40:18;11.97;;;3.50;;
43098;SDS011;28715;51.988;6.020;2022-10-26T08:42:49;7.27;;;3.17;;
43098;SDS011;28715;51.988;6.020;2022-10-26T08:45:22;7.13;;;2.93;;
43098;SDS011;28715;51.988;6.020;2022-10-26T08:47:52;7.40;;;3.27;;
43098;SDS011;28715;51.988;6.020;2022-10-26T08:50:24;7.53;;;2.43;;
43098;SDS011;28715;51.988;6.020;2022-10-26T08:52:57;6.57;;;2.60;;
43098;SDS011;28715;51.988;6.020;2022-10-26T08:55:44;6.87;;;2.33;;
43098;SDS011;28715;51.988;6.020;2022-10-26T08:58:16;7.40;;;2.83;;
43098;SDS011;28715;51.988;6.020;2022-10-26T09:00:47;5.30;;;2.30;;
43098;SDS011;28715;51.988;6.020;2022-10-26T09:03:15;7.05;;;2.03;;
43098;SDS011;28715;51.988;6.020;2022-10-26T09:05:45;6.13;;;1.83;;
43098;SDS011;28715;51.988;6.020;2022-10-26T09:08:32;7.47;;;2.00;;
43098;SDS011;28715;51.988;6.020;2022-10-26T09:11:45;5.97;;;1.80;;
43098;SDS011;28715;51.988;6.020;2022-10-26T09:14:16;4.47;;;2.00;;
43098;SDS011;28715;51.988;6.020;2022-10-26T09:22:26;5.97;;;2.00;;
43098;SDS011;28715;51.988;6.020;2022-10-26T09:25:28;5.73;;;1.77;;
43098;SDS011;28715;51.988;6.020;2022-10-26T09:27:57;4.80;;;1.63;;
43098;SDS011;28715;51.988;6.020;2022-10-26T09:30:25;5.97;;;1.97;;
43098;SDS011;28715;51.988;6.020;2022-10-26T09:32:53;4.17;;;1.70;;
43098;SDS011;28715;51.988;6.020;2022-10-26T09:37:55;5.17;;;2.03;;
43098;SDS011;28715;51.988;6.020;2022-10-26T09:40:31;5.72;;;1.83;;
43098;SDS011;28715;51.988;6.020;2022-10-26T09:43:11;5.87;;;2.03;;
43098;SDS011;28715;51.988;6.020;2022-10-26T09:45:45;5.63;;;2.07;;
43098;SDS011;28715;51.988;6.020;2022-10-26T09:48:24;6.17;;;2.10;;
43098;SDS011;28715;51.988;6.020;2022-10-26T09:51:00;6.90;;;2.00;;
43098;SDS011;28715;51.988;6.020;2022-10-26T09:53:26;8.93;;;2.30;;
43098;SDS011;28715;51.988;6.020;2022-10-26T09:58:52;6.95;;;2.05;;
43098;SDS011;28715;51.988;6.020;2022-10-26T10:04:07;8.10;;;2.50;;
43098;SDS011;28715;51.988;6.020;2022-10-26T10:06:36;6.33;;;2.40;;
43098;SDS011;28715;51.988;6.020;2022-10-26T10:09:06;5.03;;;2.43;;
43098;SDS011;28715;51.988;6.020;2022-10-26T10:14:19;5.73;;;2.67;;
43098;SDS011;28715;51.988;6.020;2022-10-26T10:16:52;6.40;;;2.80;;
43098;SDS011;28715;51.988;6.020;2022-10-26T10:19:20;8.60;;;2.95;;
43098;SDS011;28715;51.988;6.020;2022-10-26T10:21:51;6.50;;;2.73;;
43098;SDS011;28715;51.988;6.020;2022-10-26T10:26:58;7.03;;;2.83;;
43098;SDS011;28715;51.988;6.020;2022-10-26T10:29:31;7.93;;;3.00;;
43098;SDS011;28715;51.988;6.020;2022-10-26T10:31:59;8.20;;;3.23;;
43098;SDS011;28715;51.988;6.020;2022-10-26T10:34:28;8.13;;;3.45;;
43098;SDS011;28715;51.988;6.020;2022-10-26T10:36:55;7.97;;;3.67;;
43098;SDS011;28715;51.988;6.020;2022-10-26T10:39:27;9.93;;;3.47;;
43098;SDS011;28715;51.988;6.020;2022-10-26T10:41:59;6.60;;;3.63;;
43098;SDS011;28715;51.988;6.020;2022-10-26T10:44:26;10.10;;;4.07;;
43098;SDS011;28715;51.988;6.020;2022-10-26T10:47:04;8.27;;;3.85;;
43098;SDS011;28715;51.988;6.020;2022-10-26T10:49:31;6.97;;;3.93;;
43098;SDS011;28715;51.988;6.020;2022-10-26T10:51:58;6.93;;;3.90;;
43098;SDS011;28715;51.988;6.020;2022-10-26T11:02:26;9.20;;;4.43;;
43098;SDS011;28715;51.988;6.020;2022-10-26T11:08:04;10.27;;;3.70;;
43098;SDS011;28715;51.988;6.020;2022-10-26T11:10:42;9.27;;;3.63;;
43098;SDS011;28715;51.988;6.020;2022-10-26T11:13:17;8.47;;;3.47;;
43098;SDS011;28715;51.988;6.020;2022-10-26T11:15:59;6.20;;;3.10;;
43098;SDS011;28715;51.988;6.020;2022-10-26T11:18:41;7.87;;;3.10;;
43098;SDS011;28715;51.988;6.020;2022-10-26T11:21:19;9.50;;;3.43;;
43098;SDS011;28715;51.988;6.020;2022-10-26T11:24:11;7.70;;;3.10;;
43098;SDS011;28715;51.988;6.020;2022-10-26T11:32:28;8.40;;;3.20;;
43098;SDS011;28715;51.988;6.020;2022-10-26T11:35:00;8.30;;;2.90;;
43098;SDS011;28715;51.988;6.020;2022-10-26T11:40:29;7.27;;;3.00;;
43098;SDS011;28715;51.988;6.020;2022-10-26T11:45:45;8.53;;;3.30;;
43098;SDS011;28715;51.988;6.020;2022-10-26T11:48:50;6.30;;;2.80;;
43098;SDS011;28715;51.988;6.020;2022-10-26T11:54:31;6.70;;;3.10;;
43098;SDS011;28715;51.988;6.020;2022-10-26T11:57:05;6.97;;;2.90;;
43098;SDS011;28715;51.988;6.020;2022-10-26T11:59:36;5.77;;;2.70;;
43098;SDS011;28715;51.988;6.020;2022-10-26T12:02:22;8.43;;;3.07;;
43098;SDS011;28715;51.988;6.020;2022-10-26T12:04:54;9.80;;;3.20;;
43098;SDS011;28715;51.988;6.020;2022-10-26T12:07:32;8.43;;;3.00;;
43098;SDS011;28715;51.988;6.020;2022-10-26T12:10:02;7.23;;;2.87;;
43098;SDS011;28715;51.988;6.020;2022-10-26T12:23:17;7.50;;;2.90;;
43098;SDS011;28715;51.988;6.020;2022-10-26T12:25:44;8.67;;;3.30;;
43098;SDS011;28715;51.988;6.020;2022-10-26T12:33:56;6.93;;;3.10;;
43098;SDS011;28715;51.988;6.020;2022-10-26T12:44:37;7.20;;;2.58;;
43098;SDS011;28715;51.988;6.020;2022-10-26T12:52:28;9.77;;;2.90;;
43098;SDS011;28715;51.988;6.020;2022-10-26T12:55:16;6.97;;;3.23;;
43098;SDS011;28715;51.988;6.020;2022-10-26T12:57:51;6.73;;;2.87;;
43098;SDS011;28715;51.988;6.020;2022-10-26T13:00:39;6.53;;;2.80;;
43098;SDS011;28715;51.988;6.020;2022-10-26T13:06:09;6.50;;;2.40;;
43098;SDS011;28715;51.988;6.020;2022-10-26T13:08:40;6.97;;;2.88;;
43098;SDS011;28715;51.988;6.020;2022-10-26T13:13:41;6.63;;;2.80;;
43098;SDS011;28715;51.988;6.020;2022-10-26T13:16:11;5.77;;;2.70;;
43098;SDS011;28715;51.988;6.020;2022-10-26T13:18:40;6.37;;;2.93;;
43098;SDS011;28715;51.988;6.020;2022-10-26T13:21:08;7.83;;;3.27;;
43098;SDS011;28715;51.988;6.020;2022-10-26T13:23:39;6.57;;;2.73;;
43098;SDS011;28715;51.988;6.020;2022-10-26T13:26:11;5.82;;;2.92;;
43098;SDS011;28715;51.988;6.020;2022-10-26T13:28:42;7.83;;;3.07;;
43098;SDS011;28715;51.988;6.020;2022-10-26T13:31:19;7.33;;;3.37;;
43098;SDS011;28715;51.988;6.020;2022-10-26T13:36:37;7.75;;;3.40;;
43098;SDS011;28715;51.988;6.020;2022-10-26T13:39:12;8.10;;;3.90;;
43098;SDS011;28715;51.988;6.020;2022-10-26T13:41:45;8.17;;;3.50;;
43098;SDS011;28715;51.988;6.020;2022-10-26T13:44:27;7.35;;;3.60;;
43098;SDS011;28715;51.988;6.020;2022-10-26T13:47:00;7.47;;;3.93;;
43098;SDS011;28715;51.988;6.020;2022-10-26T13:49:42;7.53;;;3.50;;
43098;SDS011;28715;51.988;6.020;2022-10-26T13:52:15;6.70;;;4.27;;
43098;SDS011;28715;51.988;6.020;2022-10-26T13:55:28;6.03;;;3.87;;
43098;SDS011;28715;51.988;6.020;2022-10-26T13:57:56;9.05;;;4.30;;
43098;SDS011;28715;51.988;6.020;2022-10-26T14:03:25;6.00;;;3.97;;
43098;SDS011;28715;51.988;6.020;2022-10-26T14:05:51;7.93;;;4.40;;
43098;SDS011;28715;51.988;6.020;2022-10-26T14:08:17;7.33;;;4.20;;
43098;SDS011;28715;51.988;6.020;2022-10-26T14:10:45;6.57;;;4.30;;
43098;SDS011;28715;51.988;6.020;2022-10-26T14:13:16;6.37;;;4.20;;
43098;SDS011;28715;51.988;6.020;2022-10-26T14:15:45;8.20;;;4.25;;
43098;SDS011;28715;51.988;6.020;2022-10-26T14:18:24;8.47;;;4.10;;
43098;SDS011;28715;51.988;6.020;2022-10-26T14:20:54;8.53;;;3.83;;
43098;SDS011;28715;51.988;6.020;2022-10-26T14:26:22;6.27;;;3.67;;
43098;SDS011;28715;51.988;6.020;2022-10-26T14:28:59;5.40;;;2.90;;
43098;SDS011;28715;51.988;6.020;2022-10-26T14:33:51;7.90;;;3.73;;
43098;SDS011;28715;51.988;6.020;2022-10-26T14:36:18;7.13;;;3.10;;
43098;SDS011;28715;51.988;6.020;2022-10-26T14:39:02;6.73;;;3.20;;
43098;SDS011;28715;51.988;6.020;2022-10-26T14:41:31;5.93;;;3.10;;
43098;SDS011;28715;51.988;6.020;2022-10-26T14:44:00;6.57;;;3.20;;
43098;SDS011;28715;51.988;6.020;2022-10-26T14:46:26;5.33;;;2.90;;
43098;SDS011;28715;51.988;6.020;2022-10-26T14:48:57;6.97;;;2.97;;
43098;SDS011;28715;51.988;6.020;2022-10-26T14:51:28;5.93;;;2.90;;
43098;SDS011;28715;51.988;6.020;2022-10-26T14:53:58;5.40;;;2.47;;
43098;SDS011;28715;51.988;6.020;2022-10-26T14:56:29;6.37;;;3.00;;
43098;SDS011;28715;51.988;6.020;2022-10-26T14:58:58;6.07;;;3.00;;
43098;SDS011;28715;51.988;6.020;2022-10-26T15:01:24;8.97;;;2.80;;
43098;SDS011;28715;51.988;6.020;2022-10-26T15:03:57;4.97;;;2.47;;
43098;SDS011;28715;51.988;6.020;2022-10-26T15:06:29;6.60;;;3.03;;
43098;SDS011;28715;51.988;6.020;2022-10-26T15:08:56;4.70;;;2.30;;
43098;SDS011;28715;51.988;6.020;2022-10-26T15:11:23;6.53;;;2.33;;
43098;SDS011;28715;51.988;6.020;2022-10-26T15:13:50;4.97;;;2.30;;
43098;SDS011;28715;51.988;6.020;2022-10-26T15:16:18;4.90;;;2.17;;
43098;SDS011;28715;51.988;6.020;2022-10-26T15:18:47;5.03;;;2.03;;
43098;SDS011;28715;51.988;6.020;2022-10-26T15:23:48;8.07;;;2.17;;
43098;SDS011;28715;51.988;6.020;2022-10-26T15:26:15;7.60;;;2.27;;
43098;SDS011;28715;51.988;6.020;2022-10-26T15:28:41;6.97;;;2.30;;
43098;SDS011;28715;51.988;6.020;2022-10-26T15:33:37;6.32;;;2.15;;
43098;SDS011;28715;51.988;6.020;2022-10-26T15:38:33;6.85;;;1.90;;
43098;SDS011;28715;51.988;6.020;2022-10-26T15:40:59;6.97;;;2.00;;
43098;SDS011;28715;51.988;6.020;2022-10-26T15:43:27;6.70;;;2.07;;
43098;SDS011;28715;51.988;6.020;2022-10-26T15:45:52;8.20;;;2.13;;
43098;SDS011;28715;51.988;6.020;2022-10-26T15:50:52;4.77;;;1.67;;
43098;SDS011;28715;51.988;6.020;2022-10-26T15:53:22;5.15;;;2.55;;
43098;SDS011;28715;51.988;6.020;2022-10-26T15:55:53;11.87;;;3.03;;
43098;SDS011;28715;51.988;6.020;2022-10-26T15:58:21;9.45;;;6.07;;
43098;SDS011;28715;51.988;6.020;2022-10-26T16:00:47;5.63;;;3.10;;
43098;SDS011;28715;51.988;6.020;2022-10-26T16:03:13;19.80;;;14.90;;
43098;SDS011;28715;51.988;6.020;2022-10-26T16:05:50;10.13;;;6.77;;
43098;SDS011;28715;51.988;6.020;2022-10-26T16:08:20;21.03;;;16.33;;
43098;SDS011;28715;51.988;6.020;2022-10-26T16:10:48;9.93;;;5.37;;
43098;SDS011;28715;51.988;6.020;2022-10-26T16:13:15;5.78;;;2.60;;
43098;SDS011;28715;51.988;6.020;2022-10-26T16:15:41;7.90;;;3.37;;
43098;SDS011;28715;51.988;6.020;2022-10-26T16:18:07;8.07;;;5.23;;
43098;SDS011;28715;51.988;6.020;2022-10-26T16:20:32;7.70;;;3.13;;
43098;SDS011;28715;51.988;6.020;2022-10-26T16:22:58;5.20;;;1.67;;
43098;SDS011;28715;51.988;6.020;2022-10-26T16:25:30;5.37;;;2.80;;
43098;SDS011;28715;51.988;6.020;2022-10-26T16:27:57;6.27;;;2.53;;
43098;SDS011;28715;51.988;6.020;2022-10-26T16:30:23;6.27;;;2.10;;
43098;SDS011;28715;51.988;6.020;2022-10-26T16:32:48;5.77;;;1.60;;
43098;SDS011;28715;51.988;6.020;2022-10-26T16:35:14;6.67;;;2.33;;
43098;SDS011;28715;51.988;6.020;2022-10-26T16:37:40;4.80;;;2.10;;
43098;SDS011;28715;51.988;6.020;2022-10-26T16:40:06;6.53;;;2.00;;
43098;SDS011;28715;51.988;6.020;2022-10-26T16:42:32;5.87;;;2.23;;
43098;SDS011;28715;51.988;6.020;2022-10-26T16:44:58;9.10;;;1.90;;
43098;SDS011;28715;51.988;6.020;2022-10-26T16:47:24;7.63;;;1.87;;
43098;SDS011;28715;51.988;6.020;2022-10-26T16:49:49;4.57;;;1.50;;
43098;SDS011;28715;51.988;6.020;2022-10-26T16:52:15;5.50;;;1.50;;
43098;SDS011;28715;51.988;6.020;2022-10-26T16:54:41;4.50;;;1.43;;
43098;SDS011;28715;51.988;6.020;2022-10-26T16:57:07;6.77;;;1.60;;
43098;SDS011;28715;51.988;6.020;2022-10-26T16:59:32;4.90;;;1.50;;
43098;SDS011;28715;51.988;6.020;2022-10-26T17:01:58;5.20;;;1.57;;
43098;SDS011;28715;51.988;6.020;2022-10-26T17:04:24;5.17;;;1.73;;
43098;SDS011;28715;51.988;6.020;2022-10-26T17:06:49;7.17;;;1.60;;
43098;SDS011;28715;51.988;6.020;2022-10-26T17:09:15;6.60;;;1.90;;
43098;SDS011;28715;51.988;6.020;2022-10-26T17:11:40;6.63;;;1.83;;
43098;SDS011;28715;51.988;6.020;2022-10-26T17:14:06;6.23;;;1.57;;
43098;SDS011;28715;51.988;6.020;2022-10-26T17:16:32;4.83;;;1.70;;